TQPF METAR and TAF | Updated Today

TQPF METAR

Clayton J Lloyd International Airport

Observation time: 39 min. ago

TQPF 252000Z 10012KT 9999 SCT020 28/21 Q1016

Need help? Read our tutorial on how to read METARs or read the parsed version below.

Clayton J Lloyd International Airport (TQPF) METAR

  • Weather conditions on Wed, 25 May 2022 20:00:00 +0000 (39 min. ago):
  • Present conditions: Dry
  • Clouds: Scattered at 610 meters
  • Visibility: Greater than 10 km
  • Wind: 100 degrees at 12 knots
  • Temperature: 28 celsius
  • Dew point: 21 celsius
  • Pressure: 1016 millibars
  • Remarks: None


Useful to know...

TQPF TAF

Clayton J Lloyd International Airport

TAF TQPF 251700Z 2518/2618 08011KT 9999 SCT018 SCT035 PROB40 TEMPO 2518/2612 SHRA
Observation time: 3:39 hr. ago
Need help? Read our tutorial on how to read TAFs or read the parsed version below.

Parsed version of TAF for Clayton J Lloyd International Airport (TQPF)

  • From 25 May at 18:00 UTC, to day 26 of the month at 18:00 UTC
  • Clouds: Scattered at 549 meters; scattered at 1067 meters
  • Visibility: Greater than 10 km
  • Wind: 80 degrees at 11
  • Expected to arise temporarily, from 25 May at 18:00 UTC, to day 26 of the month at 12:00 UTC
    Probability of 40%